Colstrip, MT (59323)

5:28 PM MST on November 28, 2014 (GMT -0700)
Water Plant | Change Station
CLOSE
Current Station
Personal Weather Station
Location: Colstrip, MT
Elevation: 3255 ft
Nearby Weather Stations
Active Advisory: Winter Weather Advisory Active Notice: Record Report

Elev 3255 ft 45.89 °N, 106.63 °W | Updated 4 minutes ago

Mostly Cloudy
Mostly Cloudy
56.3 °F
Feels Like 56.3 °F
N
11.0
Wind Variable Wind from SW
Gusts 16.0 mph

Today
High -- | Low -- °F
--% Chance of Precip.
Yesterday
High -- | Low -- °F
Precip. -- in
7:24 AM 4:24 PM
Waxing Crescent, 45% visible
Pressure 29.46 in
Visibility 10.0 miles
Clouds Clear
Dew Point 32 °F
Humidity 39%
Rainfall 0.00 in
Snow Depth Not available.
UV 0 out of 12
Pollen .10 out of 12
Air Quality Not available.
Flu Activity Not available.
METAR KMLS 282353Z AUTO 15007KT 10SM CLR 07/01 A2943 RMK AO2 SLP975 T00720006 10106 20056 58010

More Conditions Fewer Conditions

Pressure 29.46 in
Visibility 10.0 miles
Clouds Clear
Dew Point 32 °F
Humidity 39%
Rainfall 0.00 in
Snow Depth Not available.
UV 0 out of 12
Pollen .10 out of 12
Air Quality Not available.
Flu Activity Not available.
METAR KMLS 282353Z AUTO 15007KT 10SM CLR 07/01 A2943 RMK AO2 SLP975 T00720006 10106 20056 58010

More Conditions Fewer Conditions

10-Day Weather Forecast

Almanac

Astronomy

Nov. 28, 2014 Rise Set
Actual Time
Civil Twilight
Nautical Twilight
Astronomical Twilight
Moon
Length of Visible Light
Length of Day
Tomorrow will be .
, % of the Moon is Illuminated

Today's Extremes

State Highs State Lows

Community

WunderPhotos

Upload Photos

1,774,343 photos uploaded!

WunderBlogs® & News

Nearby

Air Quality

  Air Quality AQ Index Pollutant
Not available.

Snow Depth

Station Depth Elevation

Earthquake Activity

City Distance Mag. Time & Date
Minimum magnitude displayed is 2.5.

Coastal Water Temperatures

Place Temperature

Nearby Weather Stations